createdAt,value
2023-01-26T00:01:27.799Z,1.00
2023-01-26T00:03:54.809Z,1.00
2023-01-26T00:06:22.919Z,0.90
2023-01-26T00:08:52.720Z,0.90
2023-01-26T00:11:26.882Z,0.90
2023-01-26T00:13:54.967Z,0.90
2023-01-26T00:16:22.179Z,0.90
2023-01-26T00:18:49.128Z,0.90
2023-01-26T00:21:18.910Z,0.90
2023-01-26T00:23:46.307Z,0.90
2023-01-26T00:26:17.410Z,0.90
2023-01-26T00:28:44.398Z,0.90
2023-01-26T00:31:24.015Z,0.90
2023-01-26T00:33:52.245Z,0.90
2023-01-26T00:36:19.318Z,0.90
2023-01-26T00:38:46.735Z,0.90
2023-01-26T00:41:34.433Z,0.90
2023-01-26T00:44:01.971Z,0.90
2023-01-26T00:46:29.234Z,0.90
2023-01-26T00:48:56.261Z,0.90
2023-01-26T00:51:23.353Z,0.90
2023-01-26T00:53:50.232Z,0.80
2023-01-26T00:56:17.112Z,0.80
2023-01-26T00:58:45.620Z,0.90
2023-01-26T01:01:12.944Z,0.90
2023-01-26T01:03:39.815Z,0.90
2023-01-26T01:06:06.661Z,0.90
2023-01-26T01:08:33.562Z,0.90
2023-01-26T01:11:08.986Z,0.90
2023-01-26T01:13:35.941Z,0.90
2023-01-26T01:16:11.565Z,0.90
2023-01-26T01:18:38.656Z,0.90
2023-01-26T01:21:10.377Z,0.90
2023-01-26T01:23:37.586Z,0.90
2023-01-26T01:26:05.799Z,0.90
2023-01-26T01:28:33.609Z,0.90
2023-01-26T01:31:03.720Z,0.90
2023-01-26T01:33:30.599Z,1.00
2023-01-26T01:36:05.566Z,1.00
2023-01-26T01:38:32.582Z,1.00
2023-01-26T01:40:59.597Z,1.00
2023-01-26T01:43:27.187Z,1.00
2023-01-26T01:45:55.075Z,1.00
2023-01-26T01:48:28.110Z,0.90
2023-01-26T01:51:03.779Z,0.90
2023-01-26T01:53:35.435Z,1.00
2023-01-26T01:56:07.515Z,0.90
2023-01-26T01:58:39.458Z,0.90
2023-01-26T02:01:06.423Z,0.90
2023-01-26T02:03:34.674Z,0.80
2023-01-26T02:06:10.062Z,0.90
2023-01-26T02:08:40.135Z,0.90
2023-01-26T02:11:33.357Z,0.90
2023-01-26T02:14:02.975Z,0.90
2023-01-26T02:16:29.916Z,0.90
2023-01-26T02:18:56.859Z,0.90
2023-01-26T02:21:24.475Z,0.90
2023-01-26T02:24:07.758Z,0.90
2023-01-26T02:26:36.794Z,0.90
2023-01-26T02:29:07.425Z,0.90
2023-01-26T02:31:35.057Z,0.90
2023-01-26T02:34:01.994Z,1.00
2023-01-26T02:36:31.101Z,1.00
2023-01-26T02:39:32.227Z,1.00
2023-01-26T02:42:17.784Z,1.00
2023-01-26T02:44:45.169Z,1.00
2023-01-26T02:47:14.554Z,1.00
2023-01-26T02:49:47.844Z,1.00
2023-01-26T02:52:25.309Z,1.00
2023-01-26T02:55:12.302Z,1.00
2023-01-26T02:57:39.495Z,1.00
2023-01-26T03:00:09.877Z,1.00
2023-01-26T03:02:36.899Z,1.00
2023-01-26T03:05:04.797Z,0.90
2023-01-26T03:07:32.042Z,0.90
2023-01-26T03:09:58.972Z,0.90
2023-01-26T03:12:26.603Z,0.90
2023-01-26T03:15:12.384Z,0.90
2023-01-26T03:17:39.280Z,0.90
2023-01-26T03:20:25.626Z,0.90
2023-01-26T03:23:11.117Z,1.00
2023-01-26T03:25:57.195Z,1.00
2023-01-26T03:28:24.187Z,1.00
2023-01-26T03:30:56.029Z,0.90
2023-01-26T03:33:22.961Z,0.90
2023-01-26T03:35:54.237Z,0.90
2023-01-26T03:38:21.524Z,1.00
2023-01-26T03:41:06.757Z,1.00
2023-01-26T03:43:52.396Z,1.00
2023-01-26T03:46:38.116Z,1.00
2023-01-26T03:49:23.928Z,1.00
2023-01-26T03:52:09.590Z,1.00
2023-01-26T03:54:55.096Z,1.00
2023-01-26T03:57:21.975Z,1.00
2023-01-26T03:59:48.870Z,1.00
2023-01-26T04:02:34.552Z,0.90
2023-01-26T04:05:20.275Z,1.00
2023-01-26T04:08:05.935Z,0.90
2023-01-26T04:10:32.867Z,0.90
2023-01-26T04:13:18.444Z,0.90
2023-01-26T04:16:07.108Z,0.90
2023-01-26T04:18:52.516Z,1.00
2023-01-26T04:21:34.114Z,0.90
2023-01-26T04:24:02.370Z,0.90
2023-01-26T04:26:34.920Z,0.90
2023-01-26T04:29:07.196Z,0.90
2023-01-26T04:31:34.457Z,0.90
2023-01-26T04:34:02.574Z,0.90
2023-01-26T04:36:29.791Z,0.90
2023-01-26T04:38:57.119Z,0.90
2023-01-26T04:41:24.489Z,0.90
2023-01-26T04:43:51.444Z,0.90
2023-01-26T04:46:18.331Z,0.90
2023-01-26T04:48:45.254Z,0.90
2023-01-26T04:51:17.463Z,0.90
2023-01-26T04:53:44.577Z,0.90
2023-01-26T04:56:32.996Z,0.80
2023-01-26T04:59:02.632Z,0.90
2023-01-26T05:01:30.274Z,0.90
2023-01-26T05:04:03.006Z,0.80
2023-01-26T05:06:30.662Z,0.80
2023-01-26T05:08:58.130Z,0.90
2023-01-26T05:11:25.335Z,0.90
2023-01-26T05:13:52.195Z,0.90
2023-01-26T05:16:19.969Z,0.90
2023-01-26T05:18:47.008Z,0.90
2023-01-26T05:21:14.302Z,0.90
2023-01-26T05:23:41.310Z,0.90
2023-01-26T05:26:08.583Z,0.90
2023-01-26T05:28:36.285Z,0.90
2023-01-26T05:31:03.291Z,0.90
2023-01-26T05:33:30.219Z,0.90
2023-01-26T05:35:57.377Z,0.90
2023-01-26T05:38:24.390Z,0.90
2023-01-26T05:40:51.267Z,0.90
2023-01-26T05:43:18.154Z,0.80
2023-01-26T05:45:45.089Z,0.80
2023-01-26T05:48:12.014Z,0.80
2023-01-26T05:50:38.960Z,0.70
2023-01-26T05:53:06.285Z,0.70
2023-01-26T05:55:33.397Z,0.70
2023-01-26T05:58:00.344Z,0.80
2023-01-26T06:00:27.453Z,0.80
2023-01-26T06:02:54.342Z,0.80
2023-01-26T06:05:21.301Z,0.80
2023-01-26T06:07:48.216Z,0.80
2023-01-26T06:10:15.193Z,0.70
2023-01-26T06:12:43.210Z,0.80
2023-01-26T06:15:12.496Z,0.80
2023-01-26T06:17:39.679Z,0.80
2023-01-26T06:20:08.054Z,0.90
2023-01-26T06:22:34.973Z,0.90
2023-01-26T06:25:02.357Z,0.90
2023-01-26T06:27:29.612Z,0.80
2023-01-26T06:29:57.148Z,0.90
2023-01-26T06:32:25.415Z,0.90
2023-01-26T06:34:53.537Z,0.90
2023-01-26T06:37:20.444Z,0.90
2023-01-26T06:39:47.360Z,0.90
2023-01-26T06:42:14.318Z,0.90
2023-01-26T06:44:41.169Z,0.90
2023-01-26T06:47:08.201Z,0.90
2023-01-26T06:49:35.124Z,1.00
2023-01-26T06:52:24.538Z,1.00
2023-01-26T06:54:51.715Z,1.00
2023-01-26T06:57:18.642Z,1.00
2023-01-26T06:59:45.527Z,1.00
2023-01-26T07:02:19.753Z,1.00
2023-01-26T07:04:47.822Z,1.00
2023-01-26T07:07:14.977Z,1.10
2023-01-26T07:09:42.031Z,1.10
2023-01-26T07:12:09.609Z,1.10
2023-01-26T07:14:36.533Z,1.00
2023-01-26T07:17:03.825Z,1.00
2023-01-26T07:19:33.245Z,1.00
2023-01-26T07:22:01.638Z,1.00
2023-01-26T07:24:29.210Z,1.00
2023-01-26T07:26:56.492Z,1.00
2023-01-26T07:29:23.384Z,1.10
2023-01-26T07:31:50.962Z,1.10
2023-01-26T07:34:17.862Z,1.00
2023-01-26T07:36:45.604Z,1.00
2023-01-26T07:39:12.605Z,0.90
2023-01-26T07:41:39.507Z,1.00
2023-01-26T07:44:10.730Z,1.00
2023-01-26T07:46:38.283Z,1.00
2023-01-26T07:49:05.255Z,1.00
2023-01-26T07:51:32.192Z,1.00
2023-01-26T07:53:59.640Z,1.00
2023-01-26T07:56:26.556Z,1.00
2023-01-26T07:58:54.731Z,1.00
2023-01-26T08:01:22.622Z,1.00
2023-01-26T08:03:51.516Z,1.00
2023-01-26T08:06:18.653Z,1.00
2023-01-26T08:08:54.043Z,1.10
2023-01-26T08:11:23.532Z,1.10
2023-01-26T08:13:50.620Z,1.10
2023-01-26T08:16:18.006Z,1.00
2023-01-26T08:18:46.672Z,1.10
2023-01-26T08:21:15.480Z,1.10
2023-01-26T08:23:42.584Z,1.10
2023-01-26T08:26:12.280Z,1.10
2023-01-26T08:28:39.639Z,1.10
2023-01-26T08:31:12.782Z,1.10
2023-01-26T08:33:43.507Z,1.10
2023-01-26T08:36:13.352Z,1.10
2023-01-26T08:38:40.562Z,1.10
2023-01-26T08:41:07.503Z,1.10
2023-01-26T08:43:34.957Z,1.10
2023-01-26T08:46:01.931Z,1.10
2023-01-26T08:48:31.195Z,1.10
2023-01-26T08:51:00.523Z,1.10
2023-01-26T08:53:29.924Z,1.10
2023-01-26T08:55:56.782Z,1.10
2023-01-26T08:58:23.705Z,1.10
2023-01-26T09:00:50.795Z,1.10
2023-01-26T09:03:17.820Z,1.10
2023-01-26T09:05:44.755Z,1.10
2023-01-26T09:08:14.771Z,1.10
2023-01-26T09:10:42.667Z,1.10
2023-01-26T09:13:10.044Z,1.10
2023-01-26T09:15:38.402Z,1.10
2023-01-26T09:18:05.682Z,1.10
2023-01-26T09:20:32.571Z,1.00
2023-01-26T09:22:59.411Z,1.10
2023-01-26T09:25:26.355Z,1.00
2023-01-26T09:27:53.200Z,1.00
2023-01-26T09:30:20.268Z,1.00
2023-01-26T09:32:47.251Z,1.00
2023-01-26T09:35:15.170Z,1.10
2023-01-26T09:37:44.464Z,1.10
2023-01-26T09:40:19.878Z,1.00
2023-01-26T09:43:25.516Z,1.10
2023-01-26T09:46:23.930Z,1.10
2023-01-26T09:49:13.176Z,1.10
2023-01-26T09:51:52.940Z,1.10
2023-01-26T09:54:38.343Z,1.10
2023-01-26T09:57:42.252Z,1.20
2023-01-26T10:00:16.444Z,1.10
2023-01-26T10:03:09.043Z,1.10
2023-01-26T10:05:35.966Z,1.10
2023-01-26T10:08:03.954Z,1.10
2023-01-26T10:10:36.438Z,1.10
2023-01-26T10:13:04.319Z,1.10
2023-01-26T10:15:52.637Z,1.10
2023-01-26T10:18:33.342Z,1.00
2023-01-26T10:21:02.678Z,1.00
2023-01-26T10:23:32.035Z,1.10
2023-01-26T10:26:30.111Z,1.10
2023-01-26T10:28:57.430Z,1.10
2023-01-26T10:31:30.840Z,1.10
2023-01-26T10:34:15.565Z,1.10
2023-01-26T10:36:45.282Z,1.20
2023-01-26T10:39:15.644Z,1.20
2023-01-26T10:41:58.596Z,1.20
2023-01-26T10:44:39.227Z,1.20
2023-01-26T10:47:26.356Z,1.20
2023-01-26T10:49:53.388Z,1.20
2023-01-26T10:52:22.982Z,1.20
2023-01-26T10:55:09.541Z,1.20
2023-01-26T10:57:39.503Z,1.20
2023-01-26T11:00:29.215Z,1.20
2023-01-26T11:03:16.120Z,1.30
2023-01-26T11:05:44.994Z,1.20
2023-01-26T11:08:32.789Z,1.20
2023-01-26T11:10:59.687Z,1.20
2023-01-26T11:13:26.809Z,1.20
2023-01-26T11:16:22.782Z,1.20
2023-01-26T11:19:07.014Z,1.20
2023-01-26T11:21:36.718Z,1.30
2023-01-26T11:24:17.966Z,1.30
2023-01-26T11:27:09.002Z,1.30
2023-01-26T11:29:38.580Z,1.40
2023-01-26T11:32:26.635Z,1.40
2023-01-26T11:35:18.037Z,1.50
2023-01-26T11:37:49.384Z,1.50
2023-01-26T11:40:46.502Z,1.60
2023-01-26T11:43:50.851Z,1.50
2023-01-26T11:47:05.826Z,1.50
2023-01-26T11:49:48.970Z,1.50
2023-01-26T11:52:40.582Z,1.40
2023-01-26T11:55:26.298Z,1.40
2023-01-26T11:58:03.069Z,1.40
2023-01-26T12:00:44.139Z,1.40
2023-01-26T12:03:22.550Z,1.40
2023-01-26T12:05:57.538Z,1.50
2023-01-26T12:08:38.650Z,1.50
2023-01-26T12:11:23.400Z,1.50
2023-01-26T12:13:57.346Z,1.50
2023-01-26T12:16:42.889Z,1.50
2023-01-26T12:19:16.026Z,1.50
2023-01-26T12:21:47.083Z,1.50
2023-01-26T12:24:54.341Z,1.60
2023-01-26T12:27:36.561Z,1.60
2023-01-26T12:30:45.084Z,1.60
2023-01-26T12:33:12.327Z,1.70
2023-01-26T12:36:08.363Z,1.70
2023-01-26T12:39:01.695Z,1.70
2023-01-26T12:41:37.211Z,1.80
2023-01-26T12:46:34.018Z,1.90
2023-01-26T12:49:18.080Z,1.80
2023-01-26T12:51:51.905Z,1.80
2023-01-26T12:54:30.098Z,1.80
2023-01-26T12:57:02.521Z,1.80
2023-01-26T12:59:38.899Z,1.80
2023-01-26T13:02:26.315Z,1.80
2023-01-26T13:04:53.837Z,1.80
2023-01-26T13:07:35.096Z,1.70
2023-01-26T13:10:29.347Z,1.60
2023-01-26T13:13:00.152Z,1.60
2023-01-26T13:15:32.329Z,1.60
2023-01-26T13:18:04.325Z,1.60
2023-01-26T13:20:40.361Z,1.60
2023-01-26T13:23:40.752Z,1.60
2023-01-26T13:26:16.339Z,1.50
2023-01-26T13:28:43.877Z,1.50
2023-01-26T13:31:12.403Z,1.50
2023-01-26T13:33:41.208Z,1.50
2023-01-26T13:36:18.329Z,1.40
2023-01-26T13:39:00.319Z,1.40
2023-01-26T13:41:27.240Z,1.30
2023-01-26T13:43:59.798Z,1.30
2023-01-26T13:46:42.888Z,1.20
2023-01-26T13:49:39.750Z,1.20
2023-01-26T13:52:18.372Z,1.20
2023-01-26T13:54:46.655Z,1.10
2023-01-26T13:57:27.535Z,1.10
2023-01-26T13:59:57.543Z,1.10
2023-01-26T14:02:32.788Z,1.00
2023-01-26T14:05:01.571Z,1.00
2023-01-26T14:07:32.577Z,1.00
2023-01-26T14:10:02.342Z,1.00
2023-01-26T14:12:36.356Z,0.90
2023-01-26T14:15:07.471Z,0.90
2023-01-26T14:17:37.295Z,0.90
2023-01-26T14:20:29.721Z,0.90
2023-01-26T14:23:22.657Z,0.80
2023-01-26T14:25:59.021Z,0.80
2023-01-26T14:28:38.699Z,0.80
2023-01-26T14:31:24.600Z,0.70
2023-01-26T14:33:57.439Z,0.70
2023-01-26T14:36:29.290Z,0.70
2023-01-26T14:38:57.024Z,0.70
2023-01-26T14:41:34.386Z,0.60
2023-01-26T14:44:06.164Z,0.60
2023-01-26T14:46:55.235Z,0.60
2023-01-26T14:49:35.472Z,0.60
2023-01-26T14:52:02.862Z,0.60
2023-01-26T14:54:39.567Z,0.50
2023-01-26T14:57:09.529Z,0.50
2023-01-26T14:59:38.766Z,0.50
2023-01-26T15:02:18.233Z,0.60
2023-01-26T15:04:52.105Z,0.60
2023-01-26T15:07:42.512Z,0.60
2023-01-26T15:10:27.475Z,0.60
2023-01-26T15:13:14.778Z,0.50
2023-01-26T15:15:48.598Z,0.50
2023-01-26T15:18:18.894Z,0.50
2023-01-26T15:21:00.528Z,0.50
2023-01-26T15:23:31.464Z,0.50
2023-01-26T15:26:09.505Z,0.50
2023-01-26T15:28:38.757Z,0.40
2023-01-26T15:31:06.520Z,0.40
2023-01-26T15:33:50.278Z,0.40
2023-01-26T15:36:32.624Z,0.40
2023-01-26T15:39:16.069Z,0.40
2023-01-26T15:41:44.970Z,0.40
2023-01-26T15:44:21.559Z,0.30
2023-01-26T15:46:48.457Z,0.30
2023-01-26T15:49:18.391Z,0.30
2023-01-26T15:51:45.592Z,0.30
2023-01-26T15:54:12.461Z,0.40
2023-01-26T15:56:39.418Z,0.40
2023-01-26T15:59:06.748Z,0.40
2023-01-26T16:01:33.917Z,0.40
2023-01-26T16:04:00.899Z,0.30
2023-01-26T16:06:30.612Z,0.40
2023-01-26T16:08:58.311Z,0.40
2023-01-26T16:11:48.588Z,0.40
2023-01-26T16:14:15.993Z,0.30
2023-01-26T16:16:43.256Z,0.30
2023-01-26T16:19:10.273Z,0.30
2023-01-26T16:21:41.007Z,0.40
2023-01-26T16:24:10.364Z,0.30
2023-01-26T16:26:37.310Z,0.40
2023-01-26T16:29:04.310Z,0.40
2023-01-26T16:31:33.146Z,0.30
2023-01-26T16:34:01.176Z,0.30
2023-01-26T16:36:28.284Z,0.30
2023-01-26T16:38:55.551Z,0.30
2023-01-26T16:41:30.196Z,0.40
2023-01-26T16:43:59.537Z,0.40
2023-01-26T16:46:27.969Z,0.30
2023-01-26T16:48:54.990Z,0.40
2023-01-26T16:51:28.657Z,0.40
2023-01-26T16:53:56.166Z,0.40
2023-01-26T16:56:25.018Z,0.40
2023-01-26T16:58:52.249Z,0.40
2023-01-26T17:01:35.130Z,0.40
2023-01-26T17:04:02.571Z,0.30
2023-01-26T17:06:30.403Z,0.40
2023-01-26T17:08:57.389Z,0.30
2023-01-26T17:11:28.043Z,0.30
2023-01-26T17:13:56.612Z,0.30
2023-01-26T17:16:27.046Z,0.30
2023-01-26T17:18:54.089Z,0.30
2023-01-26T17:21:21.108Z,0.30
2023-01-26T17:23:57.386Z,0.30
2023-01-26T17:26:24.753Z,0.30
2023-01-26T17:28:55.321Z,0.40
2023-01-26T17:31:23.516Z,0.40
2023-01-26T17:33:51.055Z,0.30
2023-01-26T17:36:19.307Z,0.30
2023-01-26T17:38:47.482Z,0.30
2023-01-26T17:41:14.488Z,0.30
2023-01-26T17:43:41.392Z,0.30
2023-01-26T17:46:19.168Z,0.30
2023-01-26T17:48:47.013Z,0.30
2023-01-26T17:51:19.217Z,0.40
2023-01-26T17:53:47.871Z,0.30
2023-01-26T17:56:17.800Z,0.30
2023-01-26T17:58:48.951Z,0.40
2023-01-26T18:01:16.701Z,0.30
2023-01-26T18:03:43.695Z,0.30
2023-01-26T18:06:11.607Z,0.30
2023-01-26T18:08:39.946Z,0.30
2023-01-26T18:11:09.437Z,0.30
2023-01-26T18:13:37.006Z,0.30
2023-01-26T18:16:06.445Z,0.30
2023-01-26T18:18:33.361Z,0.40
2023-01-26T18:21:11.741Z,0.40
2023-01-26T18:23:38.978Z,0.30
2023-01-26T18:26:06.282Z,0.30
2023-01-26T18:28:33.169Z,0.30
2023-01-26T18:31:07.125Z,0.40
2023-01-26T18:33:34.961Z,0.40
2023-01-26T18:36:07.087Z,0.40
2023-01-26T18:38:33.956Z,0.40
2023-01-26T18:41:00.870Z,0.40
2023-01-26T18:43:32.537Z,0.40
2023-01-26T18:46:05.318Z,0.40
2023-01-26T18:48:35.112Z,0.50
2023-01-26T18:51:02.810Z,0.50
2023-01-26T18:53:30.239Z,0.50
2023-01-26T18:56:06.259Z,0.40
2023-01-26T18:58:33.611Z,0.40
2023-01-26T19:01:09.687Z,0.50
2023-01-26T19:03:37.660Z,0.40
2023-01-26T19:06:05.787Z,0.40
2023-01-26T19:08:34.460Z,0.40
2023-01-26T19:11:08.624Z,0.40
2023-01-26T19:13:35.963Z,0.40
2023-01-26T19:16:03.220Z,0.40
2023-01-26T19:18:30.276Z,0.40
2023-01-26T19:21:02.245Z,0.40
2023-01-26T19:23:29.543Z,0.40
2023-01-26T19:25:56.837Z,0.40
2023-01-26T19:28:23.748Z,0.40
2023-01-26T19:30:50.619Z,0.40
2023-01-26T19:33:28.145Z,0.40
2023-01-26T19:35:56.558Z,0.40
2023-01-26T19:38:23.812Z,0.40
2023-01-26T19:40:52.348Z,0.30
2023-01-26T19:43:20.923Z,0.30
2023-01-26T19:45:55.508Z,0.30
2023-01-26T19:48:25.157Z,0.40
2023-01-26T19:51:13.717Z,0.40
2023-01-26T19:53:43.265Z,0.40
2023-01-26T19:56:28.129Z,0.40
2023-01-26T19:58:57.523Z,0.40
2023-01-26T20:01:25.404Z,0.40
2023-01-26T20:03:54.258Z,0.40
2023-01-26T20:06:23.467Z,0.40
2023-01-26T20:08:51.117Z,0.40
2023-01-26T20:11:18.723Z,0.40
2023-01-26T20:13:45.658Z,0.40
2023-01-26T20:16:13.918Z,0.30
2023-01-26T20:18:40.842Z,0.30
2023-01-26T20:21:07.793Z,0.30
2023-01-26T20:23:36.720Z,0.30
2023-01-26T20:26:06.132Z,0.30
2023-01-26T20:28:33.521Z,0.30
2023-01-26T20:31:22.096Z,0.30
2023-01-26T20:33:50.764Z,0.30
2023-01-26T20:36:21.323Z,0.40
2023-01-26T20:38:49.746Z,0.40
2023-01-26T20:41:20.100Z,0.40
2023-01-26T20:44:03.105Z,0.40
2023-01-26T20:46:36.500Z,0.40
2023-01-26T20:49:04.323Z,0.40
2023-01-26T20:51:35.816Z,0.40
2023-01-26T20:54:06.284Z,0.40
2023-01-26T20:56:34.039Z,0.40
2023-01-26T20:59:01.021Z,0.40
2023-01-26T21:01:28.203Z,0.40
2023-01-26T21:03:55.486Z,0.40
2023-01-26T21:06:24.398Z,0.40
2023-01-26T21:08:54.447Z,0.40
2023-01-26T21:11:23.344Z,0.40
2023-01-26T21:13:52.010Z,0.40
2023-01-26T21:16:19.701Z,0.40
2023-01-26T21:18:46.710Z,0.40
2023-01-26T21:21:17.867Z,0.40
2023-01-26T21:23:45.118Z,0.40
2023-01-26T21:26:22.314Z,0.40
2023-01-26T21:28:51.792Z,0.40
2023-01-26T21:31:19.353Z,0.40
2023-01-26T21:33:48.081Z,0.40
2023-01-26T21:36:17.872Z,0.40
2023-01-26T21:38:46.810Z,0.30
2023-01-26T21:41:40.656Z,0.30
2023-01-26T21:44:10.721Z,0.30
2023-01-26T21:46:37.819Z,0.30
2023-01-26T21:49:05.488Z,0.30
2023-01-26T21:51:51.283Z,0.40
2023-01-26T21:54:18.688Z,0.40
2023-01-26T21:56:46.357Z,0.40
2023-01-26T21:59:15.496Z,0.40
2023-01-26T22:01:45.375Z,0.40
2023-01-26T22:04:16.576Z,0.30
2023-01-26T22:06:44.037Z,0.40
2023-01-26T22:09:13.128Z,0.40
2023-01-26T22:11:40.567Z,0.40
2023-01-26T22:14:12.525Z,0.40
2023-01-26T22:16:39.450Z,0.40
2023-01-26T22:19:06.342Z,0.40
2023-01-26T22:21:33.517Z,0.40
2023-01-26T22:24:00.428Z,0.40
2023-01-26T22:26:27.415Z,0.40
2023-01-26T22:28:56.411Z,0.40
2023-01-26T22:31:28.778Z,0.40
2023-01-26T22:33:58.231Z,0.40
2023-01-26T22:36:26.150Z,0.40
2023-01-26T22:38:53.415Z,0.40
2023-01-26T22:41:29.336Z,0.40
2023-01-26T22:43:58.474Z,0.40
2023-01-26T22:46:27.423Z,0.40
2023-01-26T22:48:57.291Z,0.40
2023-01-26T22:51:29.833Z,0.40
2023-01-26T22:53:58.236Z,0.40
2023-01-26T22:56:26.027Z,0.40
2023-01-26T22:58:59.920Z,0.50
2023-01-26T23:01:32.487Z,0.40
2023-01-26T23:04:00.978Z,0.40
2023-01-26T23:06:28.567Z,0.50
2023-01-26T23:08:55.733Z,0.40
2023-01-26T23:11:25.306Z,0.40
2023-01-26T23:13:54.163Z,0.40
2023-01-26T23:16:23.666Z,0.40
2023-01-26T23:18:54.747Z,0.40
2023-01-26T23:21:22.044Z,0.40
2023-01-26T23:23:49.060Z,0.40
2023-01-26T23:26:16.213Z,0.40
2023-01-26T23:28:44.391Z,0.40
2023-01-26T23:31:12.882Z,0.40
2023-01-26T23:33:40.403Z,0.40
2023-01-26T23:36:09.164Z,0.40
2023-01-26T23:38:36.309Z,0.40
2023-01-26T23:41:05.506Z,0.40
2023-01-26T23:43:32.516Z,0.40
2023-01-26T23:45:59.653Z,0.40
2023-01-26T23:48:27.057Z,0.40
2023-01-26T23:51:02.440Z,0.40
2023-01-26T23:53:30.760Z,0.40
2023-01-26T23:56:03.433Z,0.30
2023-01-26T23:58:30.284Z,0.30
